Airfield :
LOGIN :

Register | Disclaimer

   EN    FR    IT 

 










Legend :    VFR   Marginal VFR   IFR   Intensive IFR   Very Intensive IFR
Visi :
Ceiling :
>= 8 km
>= 3000ft
5 to 8 km
1000 to 3000 ft
1500m to 5 km
500 to 1000 ft
800 to 1500m
200 to 500 ft
< 800m
< 200 ft
Symbols :   Thunderstorms  Fog  Heavy snow  Heavy precipitations  Wind > 20 kt
SIGMETs :     Misc.  Thunderstorms  Icing  Turbulence  Mountain Waves  Volcanic Ashes







- Airport Elevation : 286 ft
- IATA code : TRF


ENTO - Sandefjord , Torp

CURRENT METAR :
  • 170050Z AUTO 21010KT 9999 -RA FEW023/// BKN043/// OVC090/// 16/13 Q1009

EXPIRED METARs :
  • 170020Z AUTO 20010KT 9999 FEW096/// BKN110/// BKN140/// 15/14 Q1009
  • 162350Z AUTO 21010KT 9999 FEW078/// SCT094/// OVC140/// 16/14 Q1009
  • 162320Z AUTO 21011KT 9999 FEW076/// BKN098/// BKN130/// 16/15 Q1008
  • 162250Z AUTO 21013KT 9999 SCT011/// BKN072/// BKN100/// 16/15 Q1008
  • 162220Z AUTO 20011KT 9999 FEW012/// OVC098/// 16/16 Q1008

TAF TAF ENTO
Valid from the 17 at 00:00 until the 18 at 00:00 UTC


1700/1724 19012KT 9999 -RADZ SCT008 BKN020
TEMPO 1701/1705 20015G25KT 4000 SHRA BKN012 FEW020CB
No reported NOTAMs for that airfield.



MET'MAP, your aeronautical weather chart ! - Copyright ORBIFLY December 2007 - Disclaimer

ORBIFLY MET'MAP TEAM :

Programming & Development : Alexandra Zaïnal
Concept & Development : Baudouin d'Aumeries
Co-Development & Prog : Marc-Olivier Méhu
Technical & hardware support : Manuel Goepfert

Contact : metmap@orbifly.com




SOURCES & CREDITS :

   NOAA